sensor_id;sensor_type;location;lat;lon;timestamp;P1;durP1;ratioP1;P2;durP2;ratioP2
76708;SDS011;74360;44.410;0.216;2023-12-04T00:00:25;6.87;;;3.00;;
76708;SDS011;74360;44.410;0.216;2023-12-04T00:05:58;7.37;;;2.83;;
76708;SDS011;74360;44.410;0.216;2023-12-04T00:11:30;6.80;;;2.50;;
76708;SDS011;74360;44.410;0.216;2023-12-04T00:17:03;5.77;;;2.33;;
76708;SDS011;74360;44.410;0.216;2023-12-04T00:22:37;5.33;;;2.33;;
76708;SDS011;74360;44.410;0.216;2023-12-04T00:28:09;7.17;;;2.40;;
76708;SDS011;74360;44.410;0.216;2023-12-04T00:33:42;6.40;;;2.70;;
76708;SDS011;74360;44.410;0.216;2023-12-04T00:39:14;7.77;;;2.70;;
76708;SDS011;74360;44.410;0.216;2023-12-04T00:44:47;7.50;;;2.43;;
76708;SDS011;74360;44.410;0.216;2023-12-04T00:50:19;7.63;;;3.00;;
76708;SDS011;74360;44.410;0.216;2023-12-04T00:55:51;7.73;;;3.20;;
76708;SDS011;74360;44.410;0.216;2023-12-04T01:01:24;6.40;;;2.63;;
76708;SDS011;74360;44.410;0.216;2023-12-04T01:06:56;7.03;;;2.30;;
76708;SDS011;74360;44.410;0.216;2023-12-04T01:12:29;7.70;;;3.40;;
76708;SDS011;74360;44.410;0.216;2023-12-04T01:18:03;9.07;;;3.80;;
76708;SDS011;74360;44.410;0.216;2023-12-04T01:23:35;9.50;;;3.50;;
76708;SDS011;74360;44.410;0.216;2023-12-04T01:29:09;10.27;;;4.27;;
76708;SDS011;74360;44.410;0.216;2023-12-04T01:34:42;6.17;;;2.73;;
76708;SDS011;74360;44.410;0.216;2023-12-04T01:40:14;5.67;;;2.63;;
76708;SDS011;74360;44.410;0.216;2023-12-04T01:45:47;9.97;;;3.17;;
76708;SDS011;74360;44.410;0.216;2023-12-04T01:51:19;11.47;;;3.77;;
76708;SDS011;74360;44.410;0.216;2023-12-04T01:56:52;8.40;;;3.47;;
76708;SDS011;74360;44.410;0.216;2023-12-04T02:02:26;8.70;;;3.20;;
76708;SDS011;74360;44.410;0.216;2023-12-04T02:07:58;6.90;;;2.97;;
76708;SDS011;74360;44.410;0.216;2023-12-04T02:13:31;6.63;;;2.97;;
76708;SDS011;74360;44.410;0.216;2023-12-04T02:19:03;6.53;;;2.67;;
76708;SDS011;74360;44.410;0.216;2023-12-04T02:24:36;8.00;;;2.90;;
76708;SDS011;74360;44.410;0.216;2023-12-04T02:30:10;5.67;;;2.30;;
76708;SDS011;74360;44.410;0.216;2023-12-04T02:35:41;4.00;;;1.80;;
76708;SDS011;74360;44.410;0.216;2023-12-04T02:41:14;4.40;;;1.80;;
76708;SDS011;74360;44.410;0.216;2023-12-04T02:46:46;5.63;;;2.27;;
76708;SDS011;74360;44.410;0.216;2023-12-04T02:52:18;4.53;;;2.27;;
76708;SDS011;74360;44.410;0.216;2023-12-04T02:57:50;7.30;;;2.23;;
76708;SDS011;74360;44.410;0.216;2023-12-04T03:03:24;6.93;;;2.10;;
76708;SDS011;74360;44.410;0.216;2023-12-04T03:14:29;4.87;;;1.77;;
76708;SDS011;74360;44.410;0.216;2023-12-04T03:20:03;5.17;;;1.30;;
76708;SDS011;74360;44.410;0.216;2023-12-04T03:25:35;4.57;;;1.93;;
76708;SDS011;74360;44.410;0.216;2023-12-04T03:31:08;5.93;;;1.80;;
76708;SDS011;74360;44.410;0.216;2023-12-04T03:36:40;4.87;;;1.93;;
76708;SDS011;74360;44.410;0.216;2023-12-04T03:42:13;6.53;;;2.30;;
76708;SDS011;74360;44.410;0.216;2023-12-04T03:47:45;6.80;;;2.40;;
76708;SDS011;74360;44.410;0.216;2023-12-04T03:53:18;7.40;;;2.27;;
76708;SDS011;74360;44.410;0.216;2023-12-04T03:58:51;4.50;;;1.87;;
76708;SDS011;74360;44.410;0.216;2023-12-04T04:04:24;5.90;;;2.57;;
76708;SDS011;74360;44.410;0.216;2023-12-04T04:09:56;6.77;;;2.30;;
76708;SDS011;74360;44.410;0.216;2023-12-04T04:15:29;5.97;;;2.20;;
76708;SDS011;74360;44.410;0.216;2023-12-04T04:21:03;3.90;;;1.63;;
76708;SDS011;74360;44.410;0.216;2023-12-04T04:26:34;4.33;;;1.93;;
76708;SDS011;74360;44.410;0.216;2023-12-04T04:32:07;6.53;;;3.00;;
76708;SDS011;74360;44.410;0.216;2023-12-04T04:37:41;9.70;;;1.60;;
76708;SDS011;74360;44.410;0.216;2023-12-04T04:43:13;3.33;;;1.43;;
76708;SDS011;74360;44.410;0.216;2023-12-04T04:48:45;5.30;;;1.90;;
76708;SDS011;74360;44.410;0.216;2023-12-04T04:54:17;6.10;;;2.57;;
76708;SDS011;74360;44.410;0.216;2023-12-04T04:59:50;6.53;;;2.53;;
76708;SDS011;74360;44.410;0.216;2023-12-04T05:05:24;6.83;;;3.07;;
76708;SDS011;74360;44.410;0.216;2023-12-04T05:10:56;8.37;;;2.60;;
76708;SDS011;74360;44.410;0.216;2023-12-04T05:16:29;8.33;;;3.27;;
76708;SDS011;74360;44.410;0.216;2023-12-04T05:22:02;14.10;;;8.07;;
76708;SDS011;74360;44.410;0.216;2023-12-04T05:27:35;9.27;;;3.30;;
76708;SDS011;74360;44.410;0.216;2023-12-04T05:33:08;7.30;;;3.00;;
76708;SDS011;74360;44.410;0.216;2023-12-04T05:38:41;8.50;;;4.07;;
76708;SDS011;74360;44.410;0.216;2023-12-04T05:44:12;8.00;;;3.40;;
76708;SDS011;74360;44.410;0.216;2023-12-04T05:55:18;8.13;;;3.43;;
76708;SDS011;74360;44.410;0.216;2023-12-04T06:00:52;8.33;;;3.70;;
76708;SDS011;74360;44.410;0.216;2023-12-04T06:06:26;7.13;;;2.70;;
76708;SDS011;74360;44.410;0.216;2023-12-04T06:12:04;10.63;;;3.27;;
76708;SDS011;74360;44.410;0.216;2023-12-04T06:17:32;7.53;;;3.13;;
76708;SDS011;74360;44.410;0.216;2023-12-04T06:23:05;10.53;;;3.27;;
76708;SDS011;74360;44.410;0.216;2023-12-04T06:28:38;10.37;;;4.77;;
76708;SDS011;74360;44.410;0.216;2023-12-04T06:34:10;10.60;;;3.90;;
76708;SDS011;74360;44.410;0.216;2023-12-04T06:39:42;8.93;;;3.80;;
76708;SDS011;74360;44.410;0.216;2023-12-04T06:45:15;7.43;;;3.37;;
76708;SDS011;74360;44.410;0.216;2023-12-04T06:50:47;12.77;;;6.07;;
76708;SDS011;74360;44.410;0.216;2023-12-04T06:56:19;10.00;;;4.47;;
76708;SDS011;74360;44.410;0.216;2023-12-04T07:01:52;9.60;;;4.47;;
76708;SDS011;74360;44.410;0.216;2023-12-04T07:07:25;9.03;;;4.50;;
76708;SDS011;74360;44.410;0.216;2023-12-04T07:12:58;9.87;;;5.17;;
76708;SDS011;74360;44.410;0.216;2023-12-04T07:18:31;9.60;;;5.00;;
76708;SDS011;74360;44.410;0.216;2023-12-04T07:24:05;9.97;;;4.37;;
76708;SDS011;74360;44.410;0.216;2023-12-04T07:29:38;9.53;;;4.83;;
76708;SDS011;74360;44.410;0.216;2023-12-04T07:35:09;9.07;;;4.23;;
76708;SDS011;74360;44.410;0.216;2023-12-04T07:40:42;20.97;;;9.60;;
76708;SDS011;74360;44.410;0.216;2023-12-04T07:46:15;8.57;;;3.97;;
76708;SDS011;74360;44.410;0.216;2023-12-04T07:51:48;15.07;;;7.00;;
76708;SDS011;74360;44.410;0.216;2023-12-04T07:57:20;15.70;;;6.20;;
76708;SDS011;74360;44.410;0.216;2023-12-04T08:02:54;11.73;;;6.13;;
76708;SDS011;74360;44.410;0.216;2023-12-04T08:08:26;13.83;;;5.00;;
76708;SDS011;74360;44.410;0.216;2023-12-04T08:13:58;12.30;;;5.93;;
76708;SDS011;74360;44.410;0.216;2023-12-04T08:19:31;8.87;;;4.57;;
76708;SDS011;74360;44.410;0.216;2023-12-04T08:25:03;15.60;;;6.23;;
76708;SDS011;74360;44.410;0.216;2023-12-04T08:30:37;13.57;;;5.37;;
76708;SDS011;74360;44.410;0.216;2023-12-04T08:36:11;9.00;;;5.07;;
76708;SDS011;74360;44.410;0.216;2023-12-04T08:41:45;19.43;;;4.43;;
76708;SDS011;74360;44.410;0.216;2023-12-04T08:47:18;9.63;;;3.53;;
76708;SDS011;74360;44.410;0.216;2023-12-04T08:52:52;8.10;;;3.63;;
76708;SDS011;74360;44.410;0.216;2023-12-04T08:58:24;7.27;;;3.10;;
76708;SDS011;74360;44.410;0.216;2023-12-04T09:09:32;10.00;;;4.63;;
76708;SDS011;74360;44.410;0.216;2023-12-04T09:15:03;10.67;;;4.90;;
76708;SDS011;74360;44.410;0.216;2023-12-04T09:20:34;11.43;;;4.93;;
76708;SDS011;74360;44.410;0.216;2023-12-04T09:26:07;8.43;;;3.63;;
76708;SDS011;74360;44.410;0.216;2023-12-04T09:31:39;9.83;;;3.93;;
76708;SDS011;74360;44.410;0.216;2023-12-04T09:37:11;10.03;;;3.93;;
76708;SDS011;74360;44.410;0.216;2023-12-04T09:42:44;9.47;;;3.60;;
76708;SDS011;74360;44.410;0.216;2023-12-04T09:48:17;7.63;;;3.37;;
76708;SDS011;74360;44.410;0.216;2023-12-04T09:53:51;7.17;;;3.20;;
76708;SDS011;74360;44.410;0.216;2023-12-04T09:59:24;10.17;;;3.33;;
76708;SDS011;74360;44.410;0.216;2023-12-04T10:04:56;8.67;;;4.27;;
76708;SDS011;74360;44.410;0.216;2023-12-04T10:10:28;8.83;;;3.67;;
76708;SDS011;74360;44.410;0.216;2023-12-04T10:16:00;9.70;;;3.50;;
76708;SDS011;74360;44.410;0.216;2023-12-04T10:21:34;6.77;;;2.80;;
76708;SDS011;74360;44.410;0.216;2023-12-04T10:27:08;5.43;;;2.33;;
76708;SDS011;74360;44.410;0.216;2023-12-04T10:32:39;4.70;;;2.07;;
76708;SDS011;74360;44.410;0.216;2023-12-04T10:38:14;4.53;;;1.33;;
76708;SDS011;74360;44.410;0.216;2023-12-04T10:43:47;3.57;;;1.00;;
76708;SDS011;74360;44.410;0.216;2023-12-04T10:49:19;8.13;;;1.50;;
76708;SDS011;74360;44.410;0.216;2023-12-04T10:54:52;5.27;;;0.90;;
76708;SDS011;74360;44.410;0.216;2023-12-04T11:00:24;6.90;;;1.50;;
76708;SDS011;74360;44.410;0.216;2023-12-04T11:05:59;4.43;;;1.20;;
76708;SDS011;74360;44.410;0.216;2023-12-04T11:11:30;4.40;;;1.47;;
76708;SDS011;74360;44.410;0.216;2023-12-04T11:17:04;5.37;;;1.20;;
76708;SDS011;74360;44.410;0.216;2023-12-04T11:22:39;6.23;;;1.37;;
76708;SDS011;74360;44.410;0.216;2023-12-04T11:28:07;6.20;;;1.63;;
76708;SDS011;74360;44.410;0.216;2023-12-04T11:33:39;9.97;;;1.30;;
76708;SDS011;74360;44.410;0.216;2023-12-04T11:39:12;4.70;;;1.50;;
76708;SDS011;74360;44.410;0.216;2023-12-04T11:44:44;5.60;;;1.80;;
76708;SDS011;74360;44.410;0.216;2023-12-04T11:50:16;4.07;;;1.17;;
76708;SDS011;74360;44.410;0.216;2023-12-04T11:55:48;5.23;;;1.80;;
76708;SDS011;74360;44.410;0.216;2023-12-04T12:01:20;1.97;;;0.90;;
76708;SDS011;74360;44.410;0.216;2023-12-04T12:06:53;2.80;;;1.00;;
76708;SDS011;74360;44.410;0.216;2023-12-04T12:12:25;5.20;;;1.60;;
76708;SDS011;74360;44.410;0.216;2023-12-04T12:18:00;5.57;;;1.30;;
76708;SDS011;74360;44.410;0.216;2023-12-04T12:23:32;3.77;;;1.17;;
76708;SDS011;74360;44.410;0.216;2023-12-04T12:29:04;3.23;;;1.27;;
76708;SDS011;74360;44.410;0.216;2023-12-04T12:34:36;6.83;;;1.40;;
76708;SDS011;74360;44.410;0.216;2023-12-04T12:40:10;3.83;;;1.20;;
76708;SDS011;74360;44.410;0.216;2023-12-04T12:45:41;3.23;;;0.97;;
76708;SDS011;74360;44.410;0.216;2023-12-04T12:51:15;3.53;;;1.00;;
76708;SDS011;74360;44.410;0.216;2023-12-04T12:56:48;2.93;;;0.80;;
76708;SDS011;74360;44.410;0.216;2023-12-04T13:02:20;2.97;;;1.20;;
76708;SDS011;74360;44.410;0.216;2023-12-04T13:07:52;7.27;;;1.50;;
76708;SDS011;74360;44.410;0.216;2023-12-04T13:13:24;4.03;;;0.90;;
76708;SDS011;74360;44.410;0.216;2023-12-04T13:18:56;5.07;;;1.07;;
76708;SDS011;74360;44.410;0.216;2023-12-04T13:24:29;4.77;;;1.67;;
76708;SDS011;74360;44.410;0.216;2023-12-04T13:30:02;9.80;;;1.50;;
76708;SDS011;74360;44.410;0.216;2023-12-04T13:35:34;4.20;;;1.10;;
76708;SDS011;74360;44.410;0.216;2023-12-04T13:41:14;5.73;;;1.33;;
76708;SDS011;74360;44.410;0.216;2023-12-04T13:46:39;7.47;;;1.70;;
76708;SDS011;74360;44.410;0.216;2023-12-04T13:52:12;6.40;;;1.30;;
76708;SDS011;74360;44.410;0.216;2023-12-04T13:57:50;9.47;;;1.80;;
76708;SDS011;74360;44.410;0.216;2023-12-04T14:03:18;7.97;;;1.80;;
76708;SDS011;74360;44.410;0.216;2023-12-04T14:08:51;7.90;;;1.27;;
76708;SDS011;74360;44.410;0.216;2023-12-04T14:14:23;10.47;;;1.23;;
76708;SDS011;74360;44.410;0.216;2023-12-04T14:19:55;6.50;;;1.30;;
76708;SDS011;74360;44.410;0.216;2023-12-04T14:25:29;6.60;;;1.20;;
76708;SDS011;74360;44.410;0.216;2023-12-04T14:31:02;10.97;;;1.53;;
76708;SDS011;74360;44.410;0.216;2023-12-04T14:36:35;11.20;;;1.40;;
76708;SDS011;74360;44.410;0.216;2023-12-04T14:42:08;6.43;;;1.30;;
76708;SDS011;74360;44.410;0.216;2023-12-04T14:47:41;10.87;;;1.50;;
76708;SDS011;74360;44.410;0.216;2023-12-04T14:53:16;8.80;;;1.13;;
76708;SDS011;74360;44.410;0.216;2023-12-04T14:58:56;12.07;;;1.63;;
76708;SDS011;74360;44.410;0.216;2023-12-04T15:04:25;9.27;;;1.50;;
76708;SDS011;74360;44.410;0.216;2023-12-04T15:09:58;9.13;;;1.37;;
76708;SDS011;74360;44.410;0.216;2023-12-04T15:15:33;9.00;;;1.70;;
76708;SDS011;74360;44.410;0.216;2023-12-04T15:20:56;9.40;;;1.63;;
76708;SDS011;74360;44.410;0.216;2023-12-04T15:26:28;11.83;;;2.00;;
76708;SDS011;74360;44.410;0.216;2023-12-04T15:32:00;16.63;;;2.50;;
76708;SDS011;74360;44.410;0.216;2023-12-04T15:37:32;13.93;;;1.97;;
76708;SDS011;74360;44.410;0.216;2023-12-04T15:43:05;10.90;;;1.50;;
76708;SDS011;74360;44.410;0.216;2023-12-04T15:48:36;16.03;;;2.17;;
76708;SDS011;74360;44.410;0.216;2023-12-04T15:54:08;11.73;;;2.00;;
76708;SDS011;74360;44.410;0.216;2023-12-04T15:59:40;10.97;;;2.30;;
76708;SDS011;74360;44.410;0.216;2023-12-04T16:05:13;9.10;;;1.70;;
76708;SDS011;74360;44.410;0.216;2023-12-04T16:10:46;14.17;;;2.53;;
76708;SDS011;74360;44.410;0.216;2023-12-04T16:16:19;14.70;;;1.63;;
76708;SDS011;74360;44.410;0.216;2023-12-04T16:21:52;8.60;;;1.50;;
76708;SDS011;74360;44.410;0.216;2023-12-04T16:27:25;11.43;;;1.77;;
76708;SDS011;74360;44.410;0.216;2023-12-04T16:32:58;16.40;;;1.90;;
76708;SDS011;74360;44.410;0.216;2023-12-04T16:38:31;5.67;;;1.23;;
76708;SDS011;74360;44.410;0.216;2023-12-04T16:44:02;8.80;;;1.90;;
76708;SDS011;74360;44.410;0.216;2023-12-04T16:49:36;8.17;;;1.53;;
76708;SDS011;74360;44.410;0.216;2023-12-04T16:55:10;9.07;;;1.50;;
76708;SDS011;74360;44.410;0.216;2023-12-04T17:00:43;8.17;;;1.40;;
76708;SDS011;74360;44.410;0.216;2023-12-04T17:06:15;8.13;;;1.97;;
76708;SDS011;74360;44.410;0.216;2023-12-04T17:11:48;7.63;;;2.10;;
76708;SDS011;74360;44.410;0.216;2023-12-04T17:17:20;15.17;;;5.13;;
76708;SDS011;74360;44.410;0.216;2023-12-04T17:22:54;12.27;;;3.03;;
76708;SDS011;74360;44.410;0.216;2023-12-04T17:28:26;12.07;;;2.83;;
76708;SDS011;74360;44.410;0.216;2023-12-04T17:33:59;10.23;;;3.67;;
76708;SDS011;74360;44.410;0.216;2023-12-04T17:39:32;10.07;;;3.17;;
76708;SDS011;74360;44.410;0.216;2023-12-04T17:45:05;16.97;;;4.33;;
76708;SDS011;74360;44.410;0.216;2023-12-04T17:50:37;13.83;;;3.20;;
76708;SDS011;74360;44.410;0.216;2023-12-04T17:56:11;13.43;;;3.60;;
76708;SDS011;74360;44.410;0.216;2023-12-04T18:01:43;9.10;;;2.77;;
76708;SDS011;74360;44.410;0.216;2023-12-04T18:07:16;11.80;;;2.80;;
76708;SDS011;74360;44.410;0.216;2023-12-04T18:12:50;11.63;;;2.70;;
76708;SDS011;74360;44.410;0.216;2023-12-04T18:18:22;11.27;;;2.40;;
76708;SDS011;74360;44.410;0.216;2023-12-04T18:23:55;36.97;;;15.60;;
76708;SDS011;74360;44.410;0.216;2023-12-04T18:29:28;22.80;;;8.37;;
76708;SDS011;74360;44.410;0.216;2023-12-04T18:35:00;15.57;;;3.50;;
76708;SDS011;74360;44.410;0.216;2023-12-04T18:40:33;14.63;;;4.30;;
76708;SDS011;74360;44.410;0.216;2023-12-04T18:46:06;11.87;;;2.50;;
76708;SDS011;74360;44.410;0.216;2023-12-04T18:51:39;12.07;;;2.10;;
76708;SDS011;74360;44.410;0.216;2023-12-04T18:57:11;14.90;;;2.17;;
76708;SDS011;74360;44.410;0.216;2023-12-04T19:02:43;14.43;;;1.67;;
76708;SDS011;74360;44.410;0.216;2023-12-04T19:08:16;12.53;;;2.00;;
76708;SDS011;74360;44.410;0.216;2023-12-04T19:13:47;6.90;;;1.57;;
76708;SDS011;74360;44.410;0.216;2023-12-04T19:19:19;9.97;;;2.23;;
76708;SDS011;74360;44.410;0.216;2023-12-04T19:24:51;6.93;;;2.00;;
76708;SDS011;74360;44.410;0.216;2023-12-04T19:30:24;8.03;;;2.80;;
76708;SDS011;74360;44.410;0.216;2023-12-04T19:35:58;8.73;;;2.20;;
76708;SDS011;74360;44.410;0.216;2023-12-04T19:41:31;14.10;;;3.83;;
76708;SDS011;74360;44.410;0.216;2023-12-04T19:47:03;14.27;;;3.90;;
76708;SDS011;74360;44.410;0.216;2023-12-04T19:52:34;15.60;;;5.80;;
76708;SDS011;74360;44.410;0.216;2023-12-04T19:58:07;16.40;;;4.80;;
76708;SDS011;74360;44.410;0.216;2023-12-04T20:03:40;13.10;;;3.10;;
76708;SDS011;74360;44.410;0.216;2023-12-04T20:09:13;10.80;;;1.93;;
76708;SDS011;74360;44.410;0.216;2023-12-04T20:14:46;12.80;;;2.43;;
76708;SDS011;74360;44.410;0.216;2023-12-04T20:20:20;7.53;;;1.80;;
76708;SDS011;74360;44.410;0.216;2023-12-04T20:25:52;9.23;;;1.80;;
76708;SDS011;74360;44.410;0.216;2023-12-04T20:31:24;12.67;;;2.83;;
76708;SDS011;74360;44.410;0.216;2023-12-04T20:36:57;14.17;;;3.50;;
76708;SDS011;74360;44.410;0.216;2023-12-04T20:42:30;13.37;;;3.20;;
76708;SDS011;74360;44.410;0.216;2023-12-04T20:48:02;10.97;;;2.53;;
76708;SDS011;74360;44.410;0.216;2023-12-04T20:53:35;11.43;;;2.70;;
76708;SDS011;74360;44.410;0.216;2023-12-04T20:59:09;17.47;;;4.80;;
76708;SDS011;74360;44.410;0.216;2023-12-04T21:04:41;17.63;;;4.63;;
76708;SDS011;74360;44.410;0.216;2023-12-04T21:15:47;11.90;;;2.30;;
76708;SDS011;74360;44.410;0.216;2023-12-04T21:21:17;12.70;;;2.70;;
76708;SDS011;74360;44.410;0.216;2023-12-04T21:26:49;10.17;;;2.07;;
76708;SDS011;74360;44.410;0.216;2023-12-04T21:32:21;16.87;;;2.63;;
76708;SDS011;74360;44.410;0.216;2023-12-04T21:37:53;15.03;;;2.70;;
76708;SDS011;74360;44.410;0.216;2023-12-04T21:43:25;15.33;;;2.43;;
76708;SDS011;74360;44.410;0.216;2023-12-04T21:48:57;9.47;;;1.50;;
76708;SDS011;74360;44.410;0.216;2023-12-04T21:54:29;11.47;;;2.03;;
76708;SDS011;74360;44.410;0.216;2023-12-04T22:00:04;14.23;;;2.37;;
76708;SDS011;74360;44.410;0.216;2023-12-04T22:05:35;10.43;;;2.07;;
76708;SDS011;74360;44.410;0.216;2023-12-04T22:11:07;13.03;;;1.90;;
76708;SDS011;74360;44.410;0.216;2023-12-04T22:16:39;13.50;;;2.60;;
76708;SDS011;74360;44.410;0.216;2023-12-04T22:22:13;16.70;;;4.20;;
76708;SDS011;74360;44.410;0.216;2023-12-04T22:27:45;10.77;;;2.70;;
76708;SDS011;74360;44.410;0.216;2023-12-04T22:33:17;17.40;;;4.13;;
76708;SDS011;74360;44.410;0.216;2023-12-04T22:38:50;15.50;;;3.63;;
76708;SDS011;74360;44.410;0.216;2023-12-04T22:44:21;10.80;;;2.27;;
76708;SDS011;74360;44.410;0.216;2023-12-04T22:49:55;11.93;;;2.03;;
76708;SDS011;74360;44.410;0.216;2023-12-04T22:55:28;15.70;;;2.93;;
76708;SDS011;74360;44.410;0.216;2023-12-04T23:01:03;8.97;;;2.10;;
76708;SDS011;74360;44.410;0.216;2023-12-04T23:06:34;14.47;;;2.60;;
76708;SDS011;74360;44.410;0.216;2023-12-04T23:12:07;9.87;;;1.70;;
76708;SDS011;74360;44.410;0.216;2023-12-04T23:17:39;12.53;;;2.30;;
76708;SDS011;74360;44.410;0.216;2023-12-04T23:23:11;11.77;;;2.30;;
76708;SDS011;74360;44.410;0.216;2023-12-04T23:28:45;12.47;;;2.40;;
76708;SDS011;74360;44.410;0.216;2023-12-04T23:34:17;16.53;;;2.30;;
76708;SDS011;74360;44.410;0.216;2023-12-04T23:39:49;14.27;;;1.73;;
76708;SDS011;74360;44.410;0.216;2023-12-04T23:45:23;13.97;;;2.40;;
76708;SDS011;74360;44.410;0.216;2023-12-04T23:50:55;15.17;;;2.20;;
76708;SDS011;74360;44.410;0.216;2023-12-04T23:56:28;16.50;;;2.13;;
